createdAt,value
2018-12-18T00:01:56.312Z,3.00
2018-12-18T00:04:31.724Z,3.00
2018-12-18T00:07:10.457Z,3.00
2018-12-18T00:09:44.428Z,2.90
2018-12-18T00:12:22.335Z,2.90
2018-12-18T00:14:55.745Z,2.90
2018-12-18T00:17:28.901Z,2.90
2018-12-18T00:20:04.066Z,3.00
2018-12-18T00:22:39.186Z,3.00
2018-12-18T00:25:14.104Z,3.00
2018-12-18T00:30:26.019Z,3.10
2018-12-18T00:33:01.725Z,3.00
2018-12-18T00:35:37.357Z,3.10
2018-12-18T00:38:18.224Z,3.10
2018-12-18T00:40:51.723Z,3.10
2018-12-18T00:43:25.905Z,3.10
2018-12-18T00:45:58.316Z,3.10
2018-12-18T00:48:30.878Z,3.10
2018-12-18T00:51:04.906Z,3.20
2018-12-18T00:53:39.514Z,3.10
2018-12-18T00:56:11.725Z,3.10
2018-12-18T00:58:47.852Z,3.00
2018-12-18T01:01:24.119Z,2.90
2018-12-18T01:04:00.302Z,2.80
2018-12-18T01:06:36.005Z,2.80
2018-12-18T01:09:11.723Z,2.80
2018-12-18T01:11:47.732Z,2.80
2018-12-18T01:14:25.937Z,2.80
2018-12-18T01:17:00.190Z,2.80
2018-12-18T01:19:34.004Z,2.80
2018-12-18T01:22:08.594Z,2.80
2018-12-18T01:24:44.262Z,2.70
2018-12-18T01:27:19.657Z,2.70
2018-12-18T01:29:55.328Z,2.70
2018-12-18T01:32:30.397Z,2.80
2018-12-18T01:35:06.439Z,2.80
2018-12-18T01:37:41.725Z,2.70
2018-12-18T01:40:18.926Z,2.70
2018-12-18T01:42:53.744Z,2.80
2018-12-18T01:45:29.211Z,2.60
2018-12-18T01:48:03.167Z,2.60
2018-12-18T01:50:39.503Z,2.50
2018-12-18T01:53:13.628Z,2.40
2018-12-18T01:55:48.538Z,2.40
2018-12-18T01:58:21.726Z,2.40
2018-12-18T02:00:58.101Z,2.30
2018-12-18T02:03:36.873Z,2.20
2018-12-18T02:06:11.729Z,2.10
2018-12-18T02:08:46.491Z,2.10
2018-12-18T02:11:21.354Z,2.00
2018-12-18T02:13:57.171Z,1.90
2018-12-18T02:16:31.725Z,1.80
2018-12-18T02:19:06.117Z,1.80
2018-12-18T02:21:41.725Z,1.70
2018-12-18T02:24:17.451Z,1.60
2018-12-18T02:26:51.726Z,1.60
2018-12-18T02:29:28.333Z,1.60
2018-12-18T02:32:05.306Z,1.50
2018-12-18T02:34:40.746Z,1.50
2018-12-18T02:37:15.024Z,1.50
2018-12-18T02:39:48.866Z,1.40
2018-12-18T02:42:21.555Z,1.40
2018-12-18T02:44:58.249Z,1.40
2018-12-18T02:47:34.514Z,1.40
2018-12-18T02:50:08.799Z,1.30
2018-12-18T02:52:43.982Z,1.30
2018-12-18T02:55:18.347Z,1.30
2018-12-18T02:57:54.366Z,1.30
2018-12-18T03:00:29.153Z,1.30
2018-12-18T03:02:57.110Z,1.30
2018-12-18T03:05:33.095Z,1.20
2018-12-18T03:08:07.320Z,1.20
2018-12-18T03:10:42.586Z,1.20
2018-12-18T03:13:18.105Z,1.20
2018-12-18T03:15:53.348Z,1.20
2018-12-18T03:18:28.172Z,1.20
2018-12-18T03:21:06.643Z,1.10
2018-12-18T03:23:40.647Z,1.10
2018-12-18T03:26:16.720Z,1.20
2018-12-18T03:28:51.727Z,1.20
2018-12-18T03:31:26.013Z,1.20
2018-12-18T03:34:01.726Z,1.20
2018-12-18T03:36:36.346Z,1.20
2018-12-18T03:39:11.728Z,1.20
2018-12-18T03:41:49.432Z,1.20
2018-12-18T03:44:24.218Z,1.20
2018-12-18T03:46:58.199Z,1.30
2018-12-18T03:49:36.529Z,1.30
2018-12-18T03:52:11.726Z,1.30
2018-12-18T03:54:46.922Z,1.40
2018-12-18T03:57:21.726Z,1.40
2018-12-18T03:59:55.562Z,1.40
2018-12-18T04:02:30.607Z,1.50
2018-12-18T04:05:08.137Z,1.60
2018-12-18T04:07:42.962Z,1.60
2018-12-18T04:10:18.939Z,1.60
2018-12-18T04:12:53.436Z,1.70
2018-12-18T04:15:26.737Z,1.70
2018-12-18T04:17:59.316Z,1.70
2018-12-18T04:20:37.426Z,1.80
2018-12-18T04:23:11.727Z,1.80
2018-12-18T04:25:48.905Z,1.80
2018-12-18T04:28:22.490Z,1.90
2018-12-18T04:30:57.263Z,1.90
2018-12-18T04:33:33.382Z,1.90
2018-12-18T04:36:08.903Z,1.80
2018-12-18T04:38:43.898Z,1.90
2018-12-18T04:41:20.316Z,1.90
2018-12-18T04:43:56.303Z,1.90
2018-12-18T04:46:31.426Z,1.90
2018-12-18T04:49:05.074Z,1.90
2018-12-18T04:51:40.633Z,1.90
2018-12-18T04:54:16.739Z,1.80
2018-12-18T04:56:51.728Z,1.80
2018-12-18T04:59:25.780Z,1.70
2018-12-18T05:01:58.996Z,1.70
2018-12-18T05:04:34.633Z,1.70
2018-12-18T05:07:10.426Z,1.60
2018-12-18T05:09:45.998Z,1.60
2018-12-18T05:12:21.730Z,1.50
2018-12-18T05:14:56.737Z,1.50
2018-12-18T05:17:31.729Z,1.50
2018-12-18T05:20:08.122Z,1.50
2018-12-18T05:22:42.915Z,1.50
2018-12-18T05:25:18.285Z,1.50
2018-12-18T05:27:54.702Z,1.50
2018-12-18T05:30:28.459Z,1.40
2018-12-18T05:33:03.340Z,1.40
2018-12-18T05:35:39.108Z,1.40
2018-12-18T05:38:13.630Z,1.30
2018-12-18T05:40:48.945Z,1.20
2018-12-18T05:43:25.696Z,1.20
2018-12-18T05:45:59.631Z,1.20
2018-12-18T05:48:38.380Z,1.20
2018-12-18T05:51:13.571Z,1.20
2018-12-18T05:53:48.740Z,1.20
2018-12-18T05:56:24.547Z,1.20
2018-12-18T05:58:58.284Z,1.20
2018-12-18T06:01:31.732Z,1.20
2018-12-18T06:04:06.814Z,1.20
2018-12-18T06:06:41.333Z,1.10
2018-12-18T06:09:15.103Z,1.00
2018-12-18T06:11:48.845Z,1.00
2018-12-18T06:14:23.819Z,1.00
2018-12-18T06:16:57.893Z,1.00
2018-12-18T06:19:33.041Z,1.00
2018-12-18T06:22:06.844Z,1.00
2018-12-18T06:24:42.864Z,0.90
2018-12-18T06:27:18.382Z,0.90
2018-12-18T06:29:55.035Z,0.90
2018-12-18T06:32:30.823Z,0.80
2018-12-18T06:35:10.329Z,0.90
2018-12-18T06:37:44.433Z,0.90
2018-12-18T06:40:19.801Z,0.90
2018-12-18T06:42:56.480Z,0.90
2018-12-18T06:45:32.942Z,0.80
2018-12-18T06:48:07.633Z,0.80
2018-12-18T06:50:43.373Z,0.80
2018-12-18T06:53:18.645Z,0.70
2018-12-18T06:55:53.988Z,0.70
2018-12-18T06:58:25.753Z,0.60
2018-12-18T07:01:01.419Z,0.60
2018-12-18T07:03:36.013Z,0.60
2018-12-18T07:06:11.458Z,0.60
2018-12-18T07:08:44.927Z,0.60
2018-12-18T07:11:19.769Z,0.60
2018-12-18T07:13:53.233Z,0.60
2018-12-18T07:16:28.744Z,0.70
2018-12-18T07:19:02.780Z,0.70
2018-12-18T07:21:31.731Z,0.70
2018-12-18T07:24:06.313Z,0.70
2018-12-18T07:26:41.072Z,0.70
2018-12-18T07:29:15.608Z,0.70
2018-12-18T07:31:46.660Z,0.80
2018-12-18T07:34:23.898Z,0.70
2018-12-18T07:36:51.824Z,0.80
2018-12-18T07:39:23.941Z,0.80
2018-12-18T07:41:56.253Z,0.90
2018-12-18T07:44:28.638Z,0.90
2018-12-18T07:47:02.907Z,0.80
2018-12-18T07:49:35.585Z,0.70
2018-12-18T07:52:10.128Z,0.70
2018-12-18T07:54:46.077Z,0.70
2018-12-18T07:57:21.571Z,0.80
2018-12-18T07:59:58.933Z,0.90
2018-12-18T08:02:34.605Z,1.00
2018-12-18T08:05:08.883Z,1.00
2018-12-18T08:07:42.956Z,1.00
2018-12-18T08:10:11.537Z,1.00
2018-12-18T08:12:41.606Z,1.10
2018-12-18T08:15:12.923Z,1.10
2018-12-18T08:17:46.458Z,1.10
2018-12-18T08:20:21.731Z,1.10
2018-12-18T08:22:53.237Z,1.10
2018-12-18T08:25:27.931Z,1.20
2018-12-18T08:28:02.298Z,1.30
2018-12-18T08:30:35.927Z,1.30
2018-12-18T08:33:11.396Z,1.30
2018-12-18T08:35:44.200Z,1.40
2018-12-18T08:38:18.891Z,1.50
2018-12-18T08:40:52.158Z,1.50
2018-12-18T08:43:25.937Z,1.60
2018-12-18T08:45:58.901Z,1.60
2018-12-18T08:48:27.467Z,1.60
2018-12-18T08:50:59.950Z,1.60
2018-12-18T08:53:33.023Z,1.70
2018-12-18T08:56:06.754Z,1.80
2018-12-18T08:58:41.733Z,1.90
2018-12-18T09:01:16.117Z,2.10
2018-12-18T09:03:49.016Z,2.10
2018-12-18T09:06:21.401Z,2.20
2018-12-18T09:08:54.088Z,2.30
2018-12-18T09:11:26.829Z,2.40
2018-12-18T09:13:58.793Z,2.40
2018-12-18T09:16:38.825Z,2.50
2018-12-18T09:19:06.956Z,2.60
2018-12-18T09:21:40.361Z,2.70
2018-12-18T09:24:14.406Z,2.70
2018-12-18T09:26:44.806Z,2.80
2018-12-18T09:29:12.635Z,2.90
2018-12-18T09:31:40.241Z,2.90
2018-12-18T09:34:08.094Z,3.00
2018-12-18T09:36:40.678Z,3.10
2018-12-18T09:39:27.129Z,3.10
2018-12-18T09:42:01.323Z,3.10
2018-12-18T09:44:34.530Z,3.20
2018-12-18T09:47:07.950Z,3.30
2018-12-18T09:49:35.924Z,3.30
2018-12-18T09:52:09.189Z,3.40
2018-12-18T09:54:42.747Z,3.50
2018-12-18T09:57:21.729Z,3.60
2018-12-18T09:59:54.306Z,3.70
2018-12-18T10:02:22.526Z,3.70
2018-12-18T10:04:56.528Z,3.70
2018-12-18T10:07:29.309Z,3.70
2018-12-18T10:09:57.582Z,3.70
2018-12-18T10:12:37.619Z,3.70
2018-12-18T10:15:09.683Z,3.80
2018-12-18T10:17:41.727Z,3.80
2018-12-18T10:20:12.739Z,3.90
2018-12-18T10:22:45.650Z,3.90
2018-12-18T10:25:21.518Z,4.00
2018-12-18T10:27:55.078Z,4.10
2018-12-18T10:30:29.399Z,4.10
2018-12-18T10:33:01.288Z,4.10
2018-12-18T10:35:37.321Z,4.10
2018-12-18T10:38:12.276Z,4.20
2018-12-18T10:40:46.831Z,4.20
2018-12-18T10:43:22.226Z,4.40
2018-12-18T10:45:53.379Z,4.50
2018-12-18T10:48:27.890Z,4.50
2018-12-18T10:51:02.951Z,4.50
2018-12-18T10:53:35.775Z,4.50
2018-12-18T10:56:08.527Z,4.50
2018-12-18T10:58:43.311Z,4.40
2018-12-18T11:01:21.727Z,4.50
2018-12-18T11:03:56.841Z,4.50
2018-12-18T11:06:30.244Z,4.60
2018-12-18T11:09:04.896Z,4.60
2018-12-18T11:11:39.868Z,4.70
2018-12-18T11:14:11.728Z,4.70
2018-12-18T11:16:44.642Z,4.80
2018-12-18T11:19:13.291Z,4.80
2018-12-18T11:21:46.795Z,4.90
2018-12-18T11:24:22.583Z,4.90
2018-12-18T11:26:56.169Z,4.90
2018-12-18T11:29:27.611Z,4.80
2018-12-18T11:32:01.417Z,4.80
2018-12-18T11:34:36.718Z,4.80
2018-12-18T11:37:11.728Z,4.70
2018-12-18T11:39:43.047Z,4.70
2018-12-18T11:42:16.493Z,4.70
2018-12-18T11:44:49.170Z,4.70
2018-12-18T11:47:24.265Z,4.70
2018-12-18T11:49:52.343Z,4.70
2018-12-18T11:52:27.527Z,4.60
2018-12-18T11:55:02.382Z,4.60
2018-12-18T11:57:34.164Z,4.50
2018-12-18T12:00:07.561Z,4.60
2018-12-18T12:02:42.999Z,4.60
2018-12-18T12:05:17.423Z,4.60
2018-12-18T12:07:50.957Z,4.60
2018-12-18T12:10:18.820Z,4.60
2018-12-18T12:12:51.275Z,4.70
2018-12-18T12:15:26.171Z,4.70
2018-12-18T12:17:58.304Z,4.70
2018-12-18T12:20:30.000Z,4.80
2018-12-18T12:25:41.727Z,4.70
2018-12-18T12:28:12.673Z,4.70
2018-12-18T12:30:46.372Z,4.70
2018-12-18T12:33:22.982Z,4.70
2018-12-18T12:35:55.234Z,4.80
2018-12-18T12:38:28.894Z,4.90
2018-12-18T12:41:00.017Z,4.90
2018-12-18T12:43:33.930Z,4.90
2018-12-18T12:46:07.403Z,4.90
2018-12-18T12:48:43.101Z,4.90
2018-12-18T12:51:13.063Z,4.80
2018-12-18T12:53:47.662Z,4.80
2018-12-18T12:56:21.511Z,4.70
2018-12-18T12:58:54.268Z,4.60
2018-12-18T13:01:28.986Z,4.60
2018-12-18T13:04:02.732Z,4.60
2018-12-18T13:06:36.480Z,4.60
2018-12-18T13:09:07.149Z,4.50
2018-12-18T13:11:37.889Z,4.50
2018-12-18T13:14:08.885Z,4.50
2018-12-18T13:16:41.146Z,4.50
2018-12-18T13:19:12.815Z,4.50
2018-12-18T13:21:47.047Z,4.40
2018-12-18T13:24:19.826Z,4.40
2018-12-18T13:26:53.156Z,4.40
2018-12-18T13:29:28.272Z,4.40
2018-12-18T13:32:03.865Z,4.40
2018-12-18T13:34:37.154Z,4.40
2018-12-18T13:37:10.801Z,4.40
2018-12-18T13:39:42.120Z,4.40
2018-12-18T13:42:14.931Z,4.40
2018-12-18T13:44:47.029Z,4.40
2018-12-18T13:47:19.164Z,4.40
2018-12-18T13:49:53.898Z,4.40
2018-12-18T13:52:26.341Z,4.40
2018-12-18T13:55:00.835Z,4.40
2018-12-18T13:57:33.491Z,4.40
2018-12-18T14:00:07.575Z,4.30
2018-12-18T14:02:39.389Z,4.30
2018-12-18T14:05:11.724Z,4.30
2018-12-18T14:07:48.305Z,4.20
2018-12-18T14:10:16.225Z,4.20
2018-12-18T14:13:03.566Z,4.10
2018-12-18T14:15:37.823Z,4.10
2018-12-18T14:18:09.455Z,4.20
2018-12-18T14:20:38.015Z,4.10
2018-12-18T14:23:12.976Z,4.10
2018-12-18T14:25:47.763Z,4.10
2018-12-18T14:28:21.281Z,4.00
2018-12-18T14:30:55.904Z,4.00
2018-12-18T14:33:33.101Z,4.00
2018-12-18T14:36:05.820Z,3.90
2018-12-18T14:38:37.992Z,3.90
2018-12-18T14:41:11.674Z,3.90
2018-12-18T14:43:43.248Z,3.80
2018-12-18T14:46:18.238Z,3.70
2018-12-18T14:48:51.725Z,3.70
2018-12-18T14:51:20.021Z,3.70
2018-12-18T14:53:53.194Z,3.70
2018-12-18T14:56:28.521Z,3.60
2018-12-18T14:58:59.932Z,3.60
2018-12-18T15:01:33.198Z,3.50
2018-12-18T15:04:06.311Z,3.50
2018-12-18T15:06:41.196Z,3.40
2018-12-18T15:09:11.634Z,3.40
2018-12-18T15:11:45.092Z,3.30
2018-12-18T15:14:16.821Z,3.30
2018-12-18T15:16:51.451Z,3.20
2018-12-18T15:19:25.271Z,3.20
2018-12-18T15:21:55.891Z,3.10
2018-12-18T15:24:28.475Z,3.10
2018-12-18T15:27:01.346Z,3.00
2018-12-18T15:29:32.528Z,2.90
2018-12-18T15:32:06.667Z,2.90
2018-12-18T15:34:38.889Z,2.90
2018-12-18T15:37:14.894Z,2.80
2018-12-18T15:39:43.945Z,2.70
2018-12-18T15:42:16.026Z,2.60
2018-12-18T15:44:51.725Z,2.60
2018-12-18T15:47:24.556Z,2.60
2018-12-18T15:49:55.786Z,2.60
2018-12-18T15:52:34.678Z,2.60
2018-12-18T15:55:04.212Z,2.50
2018-12-18T15:57:33.238Z,2.40
2018-12-18T16:00:04.898Z,2.30
2018-12-18T16:02:38.816Z,2.30
2018-12-18T16:05:11.113Z,2.30
2018-12-18T16:07:43.004Z,2.20
2018-12-18T16:10:12.727Z,2.20
2018-12-18T16:12:47.729Z,2.20
2018-12-18T16:15:21.020Z,2.20
2018-12-18T16:17:53.477Z,2.10
2018-12-18T16:20:28.999Z,2.10
2018-12-18T16:23:02.309Z,2.00
2018-12-18T16:25:35.209Z,2.00
2018-12-18T16:28:04.298Z,1.90
2018-12-18T16:30:37.989Z,1.90
2018-12-18T16:33:14.833Z,1.80
2018-12-18T16:35:46.340Z,1.80
2018-12-18T16:38:20.670Z,1.80
2018-12-18T16:40:51.726Z,1.70
2018-12-18T16:43:21.388Z,1.70
2018-12-18T16:45:55.175Z,1.60
2018-12-18T16:48:26.528Z,1.60
2018-12-18T16:50:56.867Z,1.60
2018-12-18T16:53:29.627Z,1.50
2018-12-18T16:56:01.228Z,1.50
2018-12-18T16:58:34.605Z,1.40
2018-12-18T17:01:02.901Z,1.40
2018-12-18T17:03:36.862Z,1.40
2018-12-18T17:06:08.317Z,1.30
2018-12-18T17:08:41.726Z,1.20
2018-12-18T17:11:09.830Z,1.10
2018-12-18T17:13:37.835Z,1.10
2018-12-18T17:16:12.883Z,1.00
2018-12-18T17:18:48.191Z,1.00
2018-12-18T17:21:16.826Z,0.90
2018-12-18T17:23:50.615Z,0.90
2018-12-18T17:26:24.410Z,0.80
2018-12-18T17:28:58.477Z,0.70
2018-12-18T17:31:32.937Z,0.70
2018-12-18T17:34:07.159Z,0.70
2018-12-18T17:36:41.726Z,0.70
2018-12-18T17:39:13.709Z,0.80
2018-12-18T17:41:50.053Z,0.80
2018-12-18T17:44:23.859Z,0.80
2018-12-18T17:46:56.556Z,0.90
2018-12-18T17:49:27.517Z,0.90
2018-12-18T17:52:00.257Z,1.10
2018-12-18T17:54:36.152Z,1.20
2018-12-18T17:57:10.055Z,1.20
2018-12-18T17:59:43.322Z,1.20
2018-12-18T18:04:48.863Z,1.30
2018-12-18T18:07:28.681Z,1.50
2018-12-18T18:10:02.452Z,1.40
2018-12-18T18:12:37.353Z,1.40
2018-12-18T18:15:16.210Z,1.50
2018-12-18T18:17:48.334Z,1.40
2018-12-18T18:20:22.477Z,1.50
2018-12-18T18:22:55.088Z,1.50
2018-12-18T18:25:30.760Z,1.50
2018-12-18T18:28:07.307Z,1.50
2018-12-18T18:33:40.132Z,1.40
2018-12-18T18:36:14.386Z,1.40
2018-12-18T18:38:46.964Z,1.40
2018-12-18T18:41:21.790Z,1.40
2018-12-18T18:43:55.567Z,1.50
2018-12-18T18:46:30.530Z,1.50
2018-12-18T18:49:04.950Z,1.60
2018-12-18T18:51:40.052Z,1.50
2018-12-18T18:54:14.933Z,1.60
2018-12-18T18:56:48.109Z,1.50
2018-12-18T18:59:23.126Z,1.50
2018-12-18T19:01:58.419Z,1.40
2018-12-18T19:04:32.988Z,1.40
2018-12-18T19:07:07.738Z,1.40
2018-12-18T19:09:41.628Z,1.30
2018-12-18T19:12:15.520Z,1.20
2018-12-18T19:14:50.208Z,1.20
2018-12-18T19:17:23.583Z,1.20
2018-12-18T19:20:00.504Z,1.20
2018-12-18T19:22:37.486Z,1.30
2018-12-18T19:25:10.230Z,1.20
2018-12-18T19:27:43.330Z,1.20
2018-12-18T19:30:19.554Z,1.10
2018-12-18T19:32:52.397Z,1.10
2018-12-18T19:35:25.128Z,1.00
2018-12-18T19:38:03.025Z,1.00
2018-12-18T19:40:35.726Z,1.00
2018-12-18T19:43:09.123Z,0.90
2018-12-18T19:45:42.492Z,0.80
2018-12-18T19:48:17.992Z,0.80
2018-12-18T19:50:52.565Z,0.90
2018-12-18T19:53:26.919Z,1.00
2018-12-18T19:56:01.725Z,0.90
2018-12-18T19:58:36.582Z,0.80
2018-12-18T20:01:11.725Z,0.90
2018-12-18T20:03:48.046Z,0.90
2018-12-18T20:06:23.788Z,0.90
2018-12-18T20:08:59.981Z,1.00
2018-12-18T20:11:35.559Z,1.00
2018-12-18T20:14:12.306Z,0.90
2018-12-18T20:16:45.446Z,0.90
2018-12-18T20:19:19.880Z,0.80
2018-12-18T20:21:56.794Z,0.90
2018-12-18T20:24:33.224Z,0.70
2018-12-18T20:27:09.442Z,0.80
2018-12-18T20:29:43.735Z,0.90
2018-12-18T20:32:21.362Z,1.00
2018-12-18T20:34:57.370Z,1.20
2018-12-18T20:37:30.412Z,1.20
2018-12-18T20:40:05.325Z,1.10
2018-12-18T20:42:39.551Z,1.10
2018-12-18T20:45:14.639Z,1.00
2018-12-18T20:47:49.531Z,0.90
2018-12-18T20:50:21.725Z,0.80
2018-12-18T20:52:58.666Z,0.70
2018-12-18T20:55:38.843Z,0.60
2018-12-18T20:58:08.585Z,0.60
2018-12-18T21:00:40.152Z,0.60
2018-12-18T21:03:16.319Z,0.50
2018-12-18T21:05:49.874Z,0.50
2018-12-18T21:08:25.894Z,0.50
2018-12-18T21:11:01.733Z,0.50
2018-12-18T21:13:35.624Z,0.50
2018-12-18T21:16:12.731Z,0.40
2018-12-18T21:18:46.675Z,0.40
2018-12-18T21:21:20.022Z,0.40
2018-12-18T21:23:52.041Z,0.40
2018-12-18T21:26:23.851Z,0.40
2018-12-18T21:28:57.160Z,0.50
2018-12-18T21:31:30.726Z,0.50
2018-12-18T21:34:03.640Z,0.50
2018-12-18T21:36:36.389Z,0.50
2018-12-18T21:39:11.543Z,0.50
2018-12-18T21:41:41.598Z,0.40
2018-12-18T21:44:11.003Z,0.40
2018-12-18T21:46:42.111Z,0.30
2018-12-18T21:49:12.771Z,0.30
2018-12-18T21:51:42.315Z,0.20
2018-12-18T21:54:12.930Z,0.00
2018-12-18T21:56:43.525Z,-0.10
2018-12-18T21:59:13.623Z,-0.10
2018-12-18T22:01:43.167Z,-0.10
2018-12-18T22:04:13.123Z,0.00
2018-12-18T22:06:42.449Z,0.00
2018-12-18T22:09:12.459Z,-0.10
2018-12-18T22:11:42.611Z,0.00
2018-12-18T22:14:11.655Z,0.10
2018-12-18T22:16:40.348Z,0.10
2018-12-18T22:19:10.272Z,0.10
2018-12-18T22:21:44.808Z,0.10
2018-12-18T22:24:17.906Z,-0.10
2018-12-18T22:26:48.233Z,-0.20
2018-12-18T22:29:22.709Z,-0.20
2018-12-18T22:31:56.940Z,-0.20
2018-12-18T22:34:31.253Z,-0.30
2018-12-18T22:37:01.406Z,-0.40
2018-12-18T22:39:35.124Z,-0.40
2018-12-18T22:42:09.013Z,-0.40
2018-12-18T22:44:42.031Z,-0.40
2018-12-18T22:47:15.871Z,-0.40
2018-12-18T22:49:48.540Z,-0.40
2018-12-18T22:52:17.096Z,-0.30
2018-12-18T22:54:47.767Z,-0.20
2018-12-18T22:57:18.993Z,-0.10
2018-12-18T22:59:52.734Z,-0.10
2018-12-18T23:02:26.500Z,-0.20
2018-12-18T23:05:00.038Z,-0.20
2018-12-18T23:07:30.547Z,-0.20
2018-12-18T23:10:03.570Z,-0.30
2018-12-18T23:12:34.363Z,-0.40
2018-12-18T23:15:08.103Z,-0.40
2018-12-18T23:17:41.579Z,-0.30
2018-12-18T23:20:15.382Z,-0.20
2018-12-18T23:22:47.052Z,-0.10
2018-12-18T23:25:15.438Z,-0.10
2018-12-18T23:27:51.724Z,-0.10
2018-12-18T23:30:25.661Z,0.00
2018-12-18T23:32:58.865Z,0.00
2018-12-18T23:35:32.074Z,0.00
2018-12-18T23:38:05.110Z,0.10
2018-12-18T23:40:38.268Z,0.10
2018-12-18T23:43:09.955Z,0.00
2018-12-18T23:45:42.944Z,0.00
2018-12-18T23:48:19.371Z,0.00
2018-12-18T23:50:52.281Z,0.00
2018-12-18T23:53:27.643Z,0.00
2018-12-18T23:56:01.188Z,0.00
2018-12-18T23:58:30.889Z,0.00
